Time;durP1;ratioP1;P1;durP2;ratioP2;P2;SDS_P1;SDS_P2;PMS_P1;PMS_P2;Temp;Humidity;BMP_temperature;BMP_pressure;BME280_temperature;BME280_humidity;BME280_pressure;Samples;Min_cycle;Max_cycle;Signal;HPM_P1;HPM_P2
2023/10/27 00:01:09;;;;;;;21.45;13.02;;;9.30;99.90;;;;;;5013400;28;20037;-75
2023/10/27 00:03:35;;;;;;;21.00;11.68;;;9.30;99.90;;;;;;5000067;28;20045;-75
2023/10/27 00:06:01;;;;;;;27.23;11.95;;;9.30;99.90;;;;;;5001111;28;20567;-75
2023/10/27 00:08:26;;;;;;;21.58;11.57;;;9.30;99.90;;;;;;5001440;28;20054;-75
2023/10/27 00:10:53;;;;;;;23.90;12.95;;;9.30;99.90;;;;;;5001698;28;20058;-75
2023/10/27 00:13:19;;;;;;;21.80;10.48;;;9.30;99.90;;;;;;5001562;28;20060;-75
2023/10/27 00:15:45;;;;;;;23.55;12.05;;;9.30;99.90;;;;;;5008238;28;20034;-74
2023/10/27 00:18:11;;;;;;;20.30;11.50;;;9.40;99.90;;;;;;5020054;28;20042;-75
2023/10/27 00:20:37;;;;;;;21.45;11.40;;;9.30;99.90;;;;;;5005015;28;20496;-75
2023/10/27 00:23:03;;;;;;;25.45;11.77;;;9.40;99.90;;;;;;5016212;28;20034;-74
2023/10/27 00:25:29;;;;;;;26.77;12.70;;;9.40;99.90;;;;;;5007687;28;20051;-75
2023/10/27 00:27:54;;;;;;;22.35;11.50;;;9.40;99.90;;;;;;4991468;28;21005;-75
2023/10/27 00:30:20;;;;;;;19.98;11.02;;;9.40;99.90;;;;;;5006465;28;20041;-75
2023/10/27 00:32:46;;;;;;;17.15;9.32;;;9.40;99.90;;;;;;5010661;28;20038;-75
2023/10/27 00:35:11;;;;;;;20.67;11.65;;;9.40;99.90;;;;;;5005887;28;20057;-75
2023/10/27 00:37:38;;;;;;;24.13;12.10;;;9.40;99.90;;;;;;5008506;28;20131;-75
2023/10/27 00:40:04;;;;;;;22.60;12.55;;;9.40;99.90;;;;;;5007131;28;20048;-75
2023/10/27 00:42:30;;;;;;;25.08;11.45;;;9.40;99.90;;;;;;5008592;28;20069;-75
2023/10/27 00:44:56;;;;;;;18.67;12.57;;;9.40;99.90;;;;;;5020406;28;20049;-75
2023/10/27 00:47:23;;;;;;;24.73;11.73;;;9.30;99.90;;;;;;5026221;28;20049;-75
2023/10/27 00:49:49;;;;;;;24.15;12.35;;;9.40;99.90;;;;;;4990318;28;20092;-75
2023/10/27 00:52:17;;;;;;;25.90;11.25;;;9.40;99.90;;;;;;5010753;28;20042;-75
2023/10/27 00:54:47;;;;;;;22.83;10.95;;;9.40;99.90;;;;;;4999891;28;20050;-75
2023/10/27 00:57:14;;;;;;;20.75;10.55;;;9.40;99.90;;;;;;5007464;28;20050;-75
2023/10/27 00:59:40;;;;;;;26.52;11.30;;;9.40;99.90;;;;;;5002677;28;20100;-75
2023/10/27 01:02:06;;;;;;;20.45;11.55;;;9.30;99.90;;;;;;5027943;28;20045;-74
2023/10/27 01:04:31;;;;;;;20.98;11.00;;;9.30;99.90;;;;;;5076049;22;20054;-75
2023/10/27 01:06:57;;;;;;;17.45;10.05;;;9.30;99.90;;;;;;5009199;28;20132;-75
2023/10/27 01:09:23;;;;;;;24.25;11.80;;;9.40;99.90;;;;;;5006870;28;20054;-75
2023/10/27 01:11:49;;;;;;;22.45;10.60;;;9.40;99.90;;;;;;5027386;28;20515;-75
2023/10/27 01:14:14;;;;;;;18.98;10.32;;;9.30;99.90;;;;;;5027491;28;20048;-74
2023/10/27 01:16:40;;;;;;;19.73;10.20;;;9.30;99.90;;;;;;5023403;28;20438;-75
2023/10/27 01:19:06;;;;;;;17.85;9.38;;;9.30;99.90;;;;;;5006039;28;20314;-75
2023/10/27 01:21:31;;;;;;;19.83;10.45;;;9.30;99.90;;;;;;5019578;28;20196;-75
2023/10/27 01:23:57;;;;;;;17.48;10.43;;;9.40;99.90;;;;;;5014299;28;20057;-75
2023/10/27 01:26:23;;;;;;;18.42;10.43;;;9.30;99.90;;;;;;5018890;28;21088;-75
2023/10/27 01:28:48;;;;;;;15.68;9.32;;;9.30;99.90;;;;;;5007960;28;20044;-75
2023/10/27 01:31:14;;;;;;;18.08;10.50;;;9.30;99.90;;;;;;5005528;28;20436;-74
2023/10/27 01:33:39;;;;;;;20.15;11.48;;;9.40;99.90;;;;;;5025303;28;20041;-75
2023/10/27 01:36:05;;;;;;;19.60;10.18;;;9.40;99.90;;;;;;5026053;28;20475;-75
2023/10/27 01:38:31;;;;;;;14.20;9.55;;;9.40;99.90;;;;;;5008327;28;20507;-75
2023/10/27 01:40:56;;;;;;;21.42;9.30;;;9.40;99.90;;;;;;5003236;28;20150;-75
2023/10/27 01:43:22;;;;;;;16.38;10.45;;;9.40;99.90;;;;;;5003681;28;20333;-75
2023/10/27 01:45:47;;;;;;;20.27;10.70;;;9.30;99.90;;;;;;5003428;28;20077;-75
2023/10/27 01:48:13;;;;;;;20.15;8.48;;;9.40;99.90;;;;;;5002311;28;20049;-75
2023/10/27 01:50:39;;;;;;;21.05;10.48;;;9.40;99.90;;;;;;5004837;28;20538;-75
2023/10/27 01:53:04;;;;;;;21.75;8.85;;;9.30;99.90;;;;;;5003257;28;20049;-75
2023/10/27 01:55:30;;;;;;;19.13;10.60;;;9.40;99.90;;;;;;5020037;28;20412;-74
2023/10/27 01:57:57;;;;;;;16.80;10.73;;;9.40;99.90;;;;;;5005594;28;20153;-74
2023/10/27 02:00:23;;;;;;;12.10;8.23;;;9.40;99.90;;;;;;5014863;28;20052;-75
2023/10/27 02:02:48;;;;;;;21.00;9.40;;;9.40;99.90;;;;;;5002621;28;20038;-75
2023/10/27 02:05:14;;;;;;;24.33;8.27;;;9.40;99.90;;;;;;5004398;28;20088;-75
2023/10/27 02:07:39;;;;;;;15.05;7.22;;;9.40;99.90;;;;;;5003168;28;20046;-76
2023/10/27 02:10:06;;;;;;;17.25;8.80;;;9.40;99.90;;;;;;5004703;28;20097;-75
2023/10/27 02:12:31;;;;;;;25.15;9.25;;;9.40;99.90;;;;;;5019492;28;20048;-75
2023/10/27 02:14:57;;;;;;;15.55;8.20;;;9.40;99.90;;;;;;5021984;28;20440;-75
2023/10/27 02:17:22;;;;;;;13.90;6.75;;;9.40;99.90;;;;;;5013367;28;20069;-75
2023/10/27 02:19:49;;;;;;;17.70;8.40;;;9.40;99.90;;;;;;5003180;28;20046;-75
2023/10/27 02:22:15;;;;;;;15.25;8.45;;;9.40;99.90;;;;;;5002870;28;20068;-74
2023/10/27 02:24:40;;;;;;;16.50;9.23;;;9.40;99.90;;;;;;5022187;28;20495;-75
2023/10/27 02:27:06;;;;;;;14.68;8.48;;;9.40;99.90;;;;;;5021109;28;20034;-75
2023/10/27 02:29:32;;;;;;;13.05;8.65;;;9.40;99.90;;;;;;5004665;28;20108;-74
2023/10/27 02:31:58;;;;;;;20.52;10.13;;;9.40;99.90;;;;;;5002094;28;20504;-75
2023/10/27 02:34:24;;;;;;;18.75;7.40;;;9.40;99.90;;;;;;5002157;28;20081;-75
2023/10/27 02:36:50;;;;;;;17.83;9.50;;;9.40;99.90;;;;;;5016633;28;20042;-74
2023/10/27 02:39:15;;;;;;;18.08;8.02;;;9.40;99.90;;;;;;5022840;28;20091;-75
2023/10/27 02:41:41;;;;;;;12.82;7.95;;;9.40;99.90;;;;;;5022426;28;20128;-75
2023/10/27 02:44:06;;;;;;;14.95;7.38;;;9.40;99.90;;;;;;5021280;28;20483;-75
2023/10/27 02:46:33;;;;;;;15.15;6.63;;;9.30;99.90;;;;;;5022360;28;20081;-74
2023/10/27 02:48:58;;;;;;;17.13;8.88;;;9.40;99.90;;;;;;5022505;28;20116;-75
2023/10/27 02:51:25;;;;;;;13.20;7.00;;;9.40;99.90;;;;;;5021243;28;20569;-75
2023/10/27 02:53:51;;;;;;;15.63;7.00;;;9.40;99.90;;;;;;5020472;28;20041;-75
2023/10/27 02:56:16;;;;;;;14.48;7.65;;;9.40;99.90;;;;;;5002853;28;20044;-75
2023/10/27 02:58:42;;;;;;;14.65;6.68;;;9.40;99.90;;;;;;5004874;28;20038;-75
2023/10/27 03:01:14;;;;;;;15.65;7.88;;;9.40;99.90;;;;;;5010087;28;20046;-75
2023/10/27 03:03:41;;;;;;;15.13;8.45;;;9.40;99.90;;;;;;5003604;28;20050;-75
2023/10/27 03:06:07;;;;;;;8.93;5.70;;;9.40;99.90;;;;;;5021863;28;20064;-75
2023/10/27 03:08:33;;;;;;;12.93;7.20;;;9.40;99.90;;;;;;5012660;28;20057;-75
2023/10/27 03:11:00;;;;;;;16.17;7.05;;;9.40;99.90;;;;;;5012818;28;20042;-75
2023/10/27 03:13:27;;;;;;;14.38;5.90;;;9.40;99.90;;;;;;5001504;28;20081;-75
2023/10/27 03:15:53;;;;;;;14.88;6.85;;;9.40;99.90;;;;;;5003748;28;20070;-75
2023/10/27 03:18:19;;;;;;;14.25;6.40;;;9.40;99.90;;;;;;5001262;28;20076;-75
2023/10/27 03:20:44;;;;;;;9.20;5.75;;;9.40;99.90;;;;;;5008545;28;20037;-75
2023/10/27 03:23:10;;;;;;;11.90;5.65;;;9.40;99.90;;;;;;4998632;28;20046;-75
2023/10/27 03:25:35;;;;;;;11.68;6.25;;;9.40;99.90;;;;;;5012613;28;20038;-75
2023/10/27 03:28:01;;;;;;;12.23;6.70;;;9.40;99.90;;;;;;5021273;28;20686;-75
2023/10/27 03:30:28;;;;;;;11.27;6.47;;;9.40;99.90;;;;;;5004310;28;20136;-75
2023/10/27 03:32:54;;;;;;;11.52;6.82;;;9.40;99.90;;;;;;5017585;28;20073;-75
2023/10/27 03:35:19;;;;;;;10.60;5.53;;;9.40;99.90;;;;;;5008636;28;20559;-75
2023/10/27 03:37:45;;;;;;;11.18;5.65;;;9.30;99.90;;;;;;5020703;28;20160;-75
2023/10/27 03:40:11;;;;;;;10.27;6.32;;;9.40;99.90;;;;;;5010940;28;20037;-75
2023/10/27 03:42:36;;;;;;;9.48;6.40;;;9.40;99.90;;;;;;5001447;28;20496;-75
2023/10/27 03:45:02;;;;;;;11.88;6.25;;;9.40;99.90;;;;;;5001253;28;20042;-74
2023/10/27 03:47:28;;;;;;;9.50;4.57;;;9.30;99.90;;;;;;5002335;28;20249;-75
2023/10/27 03:49:54;;;;;;;12.05;6.35;;;9.40;99.90;;;;;;5021907;28;20121;-75
2023/10/27 03:52:19;;;;;;;10.82;6.55;;;9.40;99.90;;;;;;5020327;28;20531;-75
2023/10/27 03:54:45;;;;;;;11.85;6.60;;;9.40;99.90;;;;;;5022490;28;20042;-75
2023/10/27 03:57:10;;;;;;;16.45;6.88;;;9.40;99.90;;;;;;5020427;28;20128;-75
2023/10/27 03:59:36;;;;;;;10.00;6.45;;;9.40;99.90;;;;;;5022515;28;20731;-75
2023/10/27 04:02:01;;;;;;;8.52;5.82;;;9.40;99.90;;;;;;5020913;28;20069;-75
2023/10/27 04:04:27;;;;;;;16.17;6.38;;;9.40;99.90;;;;;;5012615;28;20419;-75
2023/10/27 04:06:54;;;;;;;9.70;5.75;;;9.40;99.90;;;;;;5002594;28;20053;-75
2023/10/27 04:09:21;;;;;;;12.60;5.55;;;9.40;99.90;;;;;;5000441;28;20535;-74
2023/10/27 04:11:47;;;;;;;9.98;5.93;;;9.40;99.90;;;;;;5003403;28;20099;-75
2023/10/27 04:14:12;;;;;;;13.43;6.90;;;9.40;99.90;;;;;;4995504;28;20070;-75
2023/10/27 04:16:38;;;;;;;14.07;6.65;;;9.40;99.90;;;;;;5012649;28;20103;-75
2023/10/27 04:19:04;;;;;;;11.63;5.82;;;9.40;99.90;;;;;;5003185;28;20041;-75
2023/10/27 04:21:29;;;;;;;12.52;6.50;;;9.40;99.90;;;;;;5010637;28;20041;-75
2023/10/27 04:23:55;;;;;;;13.63;6.03;;;9.40;99.90;;;;;;5013566;28;20084;-75
2023/10/27 04:26:21;;;;;;;13.27;5.85;;;9.40;99.90;;;;;;5019579;28;20060;-75
2023/10/27 04:28:47;;;;;;;14.27;5.53;;;9.50;99.90;;;;;;5020365;28;20045;-75
2023/10/27 04:31:12;;;;;;;9.98;5.35;;;9.50;99.90;;;;;;5018760;28;20038;-75
2023/10/27 04:33:38;;;;;;;12.45;8.20;;;9.50;99.90;;;;;;5005249;28;20060;-75
2023/10/27 04:36:04;;;;;;;10.27;5.47;;;9.40;99.90;;;;;;5020560;28;20056;-75
2023/10/27 04:38:30;;;;;;;10.35;5.15;;;9.50;99.90;;;;;;5002839;28;20077;-75
2023/10/27 04:40:56;;;;;;;11.57;5.32;;;9.50;99.90;;;;;;5013911;28;20139;-75
2023/10/27 04:43:22;;;;;;;9.70;5.32;;;9.50;99.90;;;;;;5021767;28;20179;-75
2023/10/27 04:45:47;;;;;;;12.05;6.80;;;9.50;99.90;;;;;;5021182;28;20050;-75
2023/10/27 04:48:14;;;;;;;11.43;5.70;;;9.50;99.90;;;;;;5019318;28;20071;-75
2023/10/27 04:50:39;;;;;;;12.27;6.97;;;9.50;99.90;;;;;;5020245;28;20518;-75
2023/10/27 04:53:05;;;;;;;10.80;5.15;;;9.50;99.90;;;;;;5019497;28;20217;-75
2023/10/27 04:55:31;;;;;;;12.50;5.63;;;9.50;99.90;;;;;;5021861;28;20048;-75
2023/10/27 04:57:56;;;;;;;12.60;6.68;;;9.50;99.90;;;;;;5020649;28;20144;-75
2023/10/27 05:00:22;;;;;;;11.15;6.38;;;9.50;99.90;;;;;;5016635;28;20045;-75
2023/10/27 05:02:47;;;;;;;12.88;5.72;;;9.50;99.90;;;;;;4999622;28;20050;-75
2023/10/27 05:05:14;;;;;;;10.07;5.45;;;9.50;99.90;;;;;;5005983;28;20049;-75
2023/10/27 05:07:40;;;;;;;11.52;5.75;;;9.50;99.90;;;;;;5004161;28;20045;-75
2023/10/27 05:10:07;;;;;;;10.70;7.25;;;9.50;99.90;;;;;;4992904;28;20495;-75
2023/10/27 05:12:36;;;;;;;12.20;5.13;;;9.50;99.90;;;;;;4994811;28;20558;-75
2023/10/27 05:15:03;;;;;;;10.43;5.28;;;9.50;99.90;;;;;;4994538;28;20581;-75
2023/10/27 05:17:32;;;;;;;16.10;5.70;;;9.50;99.90;;;;;;5002148;28;20057;-74
2023/10/27 05:19:57;;;;;;;11.38;4.95;;;9.50;99.90;;;;;;4998870;28;20046;-75
2023/10/27 05:22:23;;;;;;;15.57;5.85;;;9.50;99.90;;;;;;5003785;28;20674;-74
2023/10/27 05:24:49;;;;;;;14.63;6.32;;;9.50;99.90;;;;;;5018464;28;20041;-75
2023/10/27 05:27:15;;;;;;;9.73;5.72;;;9.50;99.90;;;;;;5014944;28;20531;-74
2023/10/27 05:29:40;;;;;;;14.07;5.32;;;9.50;99.90;;;;;;5014554;28;20107;-75
2023/10/27 05:32:06;;;;;;;12.48;5.93;;;9.50;99.90;;;;;;5007779;28;20488;-75
2023/10/27 05:34:31;;;;;;;10.90;6.13;;;9.50;99.90;;;;;;5004066;28;20054;-74
2023/10/27 05:36:57;;;;;;;9.57;6.03;;;9.40;99.90;;;;;;5004166;28;20060;-75
2023/10/27 05:39:26;;;;;;;8.50;5.35;;;9.50;99.90;;;;;;5011197;28;20553;-75
2023/10/27 05:41:52;;;;;;;10.55;6.40;;;9.50;99.90;;;;;;5011761;28;20431;-74
2023/10/27 05:44:17;;;;;;;12.65;6.13;;;9.50;99.90;;;;;;4993684;28;20096;-75
2023/10/27 05:46:43;;;;;;;11.05;4.70;;;9.40;99.90;;;;;;4995938;28;20540;-75
2023/10/27 05:49:09;;;;;;;8.48;5.07;;;9.40;99.90;;;;;;4985299;28;20515;-75
2023/10/27 05:51:35;;;;;;;12.65;4.95;;;9.50;99.90;;;;;;5001847;28;20081;-74
2023/10/27 05:54:02;;;;;;;10.32;5.15;;;9.50;99.90;;;;;;5020698;28;20293;-74
2023/10/27 05:56:27;;;;;;;9.70;5.78;;;9.50;99.90;;;;;;5021412;28;20095;-75
2023/10/27 05:58:54;;;;;;;12.50;5.32;;;9.50;99.90;;;;;;5016188;28;20487;-74
2023/10/27 06:01:19;;;;;;;8.90;4.63;;;9.50;99.90;;;;;;4995728;28;20041;-74
2023/10/27 06:03:46;;;;;;;6.05;4.47;;;9.40;99.90;;;;;;4995704;28;20107;-74
2023/10/27 06:06:11;;;;;;;11.80;6.10;;;9.40;99.90;;;;;;4992330;28;20409;-75
2023/10/27 06:08:42;;;;;;;10.25;4.90;;;9.40;99.90;;;;;;4995184;28;20476;-74
2023/10/27 06:11:08;;;;;;;7.70;3.45;;;9.40;99.90;;;;;;5007241;28;20077;-75
2023/10/27 06:13:34;;;;;;;12.85;6.07;;;9.40;99.90;;;;;;5000174;28;20046;-75
2023/10/27 06:15:59;;;;;;;9.18;5.93;;;9.40;99.90;;;;;;4995026;28;20646;-73
2023/10/27 06:18:25;;;;;;;12.57;5.43;;;9.40;99.90;;;;;;4995663;28;20052;-75
2023/10/27 06:20:51;;;;;;;9.55;4.65;;;9.40;99.90;;;;;;5011934;28;20104;-75
2023/10/27 06:23:16;;;;;;;13.70;5.07;;;9.30;99.90;;;;;;4998629;28;20567;-75
2023/10/27 06:25:42;;;;;;;9.85;5.25;;;9.30;99.90;;;;;;5002618;28;20096;-75
2023/10/27 06:28:07;;;;;;;9.70;5.88;;;9.30;99.90;;;;;;4984534;28;20104;-75
2023/10/27 06:30:33;;;;;;;8.15;5.47;;;9.30;99.90;;;;;;5004182;28;20492;-75
2023/10/27 06:32:59;;;;;;;13.68;5.90;;;9.30;99.90;;;;;;5017732;28;20052;-75
2023/10/27 06:35:25;;;;;;;9.73;5.28;;;9.20;99.90;;;;;;5000932;28;20045;-75
2023/10/27 06:37:51;;;;;;;8.23;4.72;;;9.30;99.90;;;;;;5002841;28;20046;-75
2023/10/27 06:40:17;;;;;;;7.43;4.70;;;9.30;99.90;;;;;;5003472;28;20142;-75
2023/10/27 06:42:42;;;;;;;12.73;6.55;;;9.20;99.90;;;;;;5002647;28;20511;-75
2023/10/27 06:45:08;;;;;;;10.52;5.60;;;9.20;99.90;;;;;;5001910;28;20042;-75
2023/10/27 06:47:35;;;;;;;12.80;5.80;;;9.20;99.90;;;;;;5001072;28;20129;-75
2023/10/27 06:50:03;;;;;;;12.95;6.25;;;9.20;99.90;;;;;;5004650;28;20045;-75
2023/10/27 06:52:29;;;;;;;7.90;5.00;;;9.20;99.90;;;;;;5002676;28;20053;-75
2023/10/27 06:54:54;;;;;;;8.90;5.15;;;9.20;99.90;;;;;;5002249;28;20042;-75
2023/10/27 06:57:20;;;;;;;12.13;6.38;;;9.20;99.90;;;;;;5003599;28;20048;-75
2023/10/27 06:59:46;;;;;;;14.45;5.97;;;9.30;99.90;;;;;;5001079;28;20089;-75
2023/10/27 07:02:11;;;;;;;7.25;5.60;;;9.30;99.90;;;;;;5002232;28;20400;-75
2023/10/27 07:04:37;;;;;;;9.80;4.95;;;9.30;99.90;;;;;;5001918;28;20069;-75
2023/10/27 07:07:05;;;;;;;7.93;4.55;;;9.30;99.90;;;;;;5000674;28;20042;-75
2023/10/27 07:09:33;;;;;;;8.95;4.70;;;9.30;99.90;;;;;;5002081;28;20710;-75
2023/10/27 07:12:03;;;;;;;9.00;5.22;;;9.20;99.90;;;;;;5000090;28;20046;-74
2023/10/27 07:14:29;;;;;;;8.73;5.10;;;9.20;99.90;;;;;;5001702;28;20050;-73
2023/10/27 07:16:56;;;;;;;10.70;4.78;;;9.20;99.90;;;;;;5001442;28;20135;-74
2023/10/27 07:19:22;;;;;;;9.43;4.97;;;9.20;99.90;;;;;;5001150;28;20493;-74
2023/10/27 07:21:48;;;;;;;7.60;4.93;;;9.30;99.90;;;;;;5002882;28;20041;-74
2023/10/27 07:24:14;;;;;;;10.65;5.03;;;9.30;99.90;;;;;;5001801;28;20053;-73
2023/10/27 07:26:39;;;;;;;7.80;4.40;;;9.30;99.90;;;;;;5002244;28;20391;-74
2023/10/27 07:29:05;;;;;;;7.35;5.47;;;9.30;99.90;;;;;;4999655;28;20117;-74
2023/10/27 07:31:31;;;;;;;9.05;4.95;;;9.30;99.90;;;;;;5001961;28;20314;-74
2023/10/27 07:33:56;;;;;;;9.15;4.82;;;9.40;99.90;;;;;;4998977;28;20136;-73
2023/10/27 07:36:22;;;;;;;8.13;4.38;;;9.30;99.90;;;;;;4997099;28;20512;-76
2023/10/27 07:38:51;;;;;;;8.63;4.68;;;9.30;99.90;;;;;;4998818;28;20037;-76
2023/10/27 07:41:17;;;;;;;11.95;5.40;;;9.40;99.90;;;;;;5000107;28;20148;-76
2023/10/27 07:43:42;;;;;;;10.75;4.85;;;9.40;99.90;;;;;;5000380;28;20141;-75
2023/10/27 07:46:08;;;;;;;12.75;5.60;;;9.40;99.90;;;;;;5000240;28;20034;-76
2023/10/27 07:48:34;;;;;;;7.65;5.95;;;9.40;99.90;;;;;;4983523;28;20068;-76
2023/10/27 07:50:59;;;;;;;8.98;4.75;;;9.40;99.90;;;;;;5002496;28;20583;-76
2023/10/27 07:53:26;;;;;;;12.68;6.38;;;9.50;99.90;;;;;;5000024;28;20053;-76
2023/10/27 07:55:52;;;;;;;8.10;4.05;;;9.50;99.90;;;;;;4999696;28;20052;-75
2023/10/27 07:58:20;;;;;;;9.15;5.03;;;9.50;99.90;;;;;;4999846;28;20751;-73
2023/10/27 08:00:45;;;;;;;9.43;3.72;;;9.60;99.90;;;;;;4999042;28;20085;-73
2023/10/27 08:03:11;;;;;;;11.57;5.00;;;9.60;99.90;;;;;;4998620;28;20151;-74
2023/10/27 08:05:37;;;;;;;10.50;3.88;;;9.60;99.90;;;;;;5000645;28;20069;-74
2023/10/27 08:08:03;;;;;;;8.27;4.90;;;9.60;99.90;;;;;;5001280;28;20034;-75
2023/10/27 08:10:29;;;;;;;11.02;5.47;;;9.70;99.90;;;;;;5001316;28;20050;-76
2023/10/27 08:12:56;;;;;;;11.55;5.47;;;9.70;99.90;;;;;;4998862;28;20046;-74
2023/10/27 08:15:23;;;;;;;10.32;4.60;;;9.70;99.90;;;;;;5001600;28;20121;-74
2023/10/27 08:17:48;;;;;;;9.00;4.80;;;9.70;99.90;;;;;;5000091;28;20049;-74
2023/10/27 08:20:16;;;;;;;7.97;3.58;;;9.80;99.90;;;;;;5000563;28;20092;-74
2023/10/27 08:22:43;;;;;;;14.05;5.10;;;9.70;99.90;;;;;;5002284;28;20196;-75
2023/10/27 08:25:08;;;;;;;10.10;3.80;;;9.80;99.90;;;;;;4999438;28;20042;-73
2023/10/27 08:27:34;;;;;;;7.85;3.92;;;9.80;99.90;;;;;;4998949;28;20060;-74
2023/10/27 08:30:00;;;;;;;9.75;4.60;;;9.80;99.90;;;;;;4999851;28;20072;-73
2023/10/27 08:32:26;;;;;;;9.25;4.47;;;9.90;99.90;;;;;;4999010;28;20033;-73
2023/10/27 08:34:52;;;;;;;5.57;3.15;;;9.80;99.90;;;;;;5001610;28;20404;-73
2023/10/27 08:37:18;;;;;;;10.80;5.25;;;9.80;99.90;;;;;;4999589;28;20046;-76
2023/10/27 08:39:44;;;;;;;7.57;3.92;;;9.90;99.90;;;;;;4999959;28;20403;-74
2023/10/27 08:42:10;;;;;;;7.05;4.13;;;9.90;99.90;;;;;;5002085;28;20092;-74
2023/10/27 08:44:37;;;;;;;8.38;4.65;;;9.90;99.90;;;;;;5000976;28;20038;-74
2023/10/27 08:47:04;;;;;;;8.73;3.97;;;9.90;99.90;;;;;;5000113;28;20041;-73
2023/10/27 08:49:33;;;;;;;5.88;4.15;;;9.90;99.90;;;;;;5000556;28;20137;-73
2023/10/27 08:52:02;;;;;;;10.50;4.78;;;9.90;99.90;;;;;;5003149;28;20080;-73
2023/10/27 08:54:30;;;;;;;8.88;4.28;;;9.90;99.90;;;;;;5002466;28;20515;-73
2023/10/27 08:56:56;;;;;;;13.70;5.95;;;9.90;99.90;;;;;;5003070;28;20350;-73
2023/10/27 08:59:22;;;;;;;12.05;4.63;;;10.00;99.90;;;;;;5004432;28;20046;-73
2023/10/27 09:01:47;;;;;;;7.25;3.30;;;9.90;99.90;;;;;;5001349;28;20045;-73
2023/10/27 09:04:15;;;;;;;8.27;4.13;;;10.00;99.90;;;;;;5004112;28;20062;-74
2023/10/27 09:06:42;;;;;;;7.53;4.40;;;10.00;99.90;;;;;;5002858;28;20050;-73
2023/10/27 09:09:09;;;;;;;9.25;4.50;;;10.00;99.90;;;;;;5000028;28;20096;-73
2023/10/27 09:11:42;;;;;;;9.95;4.40;;;10.00;99.90;;;;;;5003823;28;20045;-73
2023/10/27 09:14:26;;;;;;;9.23;4.47;;;10.00;99.90;;;;;;5004229;28;20046;-73
2023/10/27 09:16:51;;;;;;;7.68;4.80;;;10.00;99.90;;;;;;5001448;28;20053;-74
2023/10/27 09:19:26;;;;;;;8.13;4.10;;;10.00;99.90;;;;;;5002188;28;20061;-73
2023/10/27 09:21:53;;;;;;;8.27;4.40;;;10.00;99.90;;;;;;5002998;28;20057;-73
2023/10/27 09:24:27;;;;;;;8.15;5.38;;;10.00;99.90;;;;;;5002192;28;20050;-73
2023/10/27 09:26:54;;;;;;;12.82;5.47;;;10.10;99.90;;;;;;5002244;28;20049;-74
2023/10/27 09:29:21;;;;;;;10.18;4.88;;;10.10;99.90;;;;;;5003184;28;20113;-73
2023/10/27 09:31:47;;;;;;;11.68;5.80;;;10.10;99.90;;;;;;5002684;28;20053;-73
2023/10/27 09:34:17;;;;;;;9.40;5.90;;;10.20;99.90;;;;;;5003774;28;20038;-76
2023/10/27 09:36:54;;;;;;;10.02;4.80;;;10.10;99.90;;;;;;5001745;28;20056;-75
2023/10/27 09:39:22;;;;;;;7.03;5.00;;;10.20;99.90;;;;;;5002070;28;20065;-74
2023/10/27 09:42:03;;;;;;;10.05;4.80;;;10.20;99.90;;;;;;5003595;28;20128;-75
2023/10/27 09:44:55;;;;;;;16.25;5.25;;;10.30;99.90;;;;;;4986029;28;20053;-76
2023/10/27 09:47:32;;;;;;;5.80;4.13;;;10.30;99.90;;;;;;4985712;28;20042;-75
2023/10/27 09:50:06;;;;;;;10.52;5.20;;;10.30;99.90;;;;;;5019095;28;20114;-75
2023/10/27 09:52:33;;;;;;;10.50;4.20;;;10.30;99.90;;;;;;5003573;28;20038;-74
2023/10/27 09:55:00;;;;;;;6.75;3.90;;;10.30;99.90;;;;;;5002938;28;20049;-75
2023/10/27 09:57:27;;;;;;;8.35;4.80;;;10.40;99.90;;;;;;5001611;28;20103;-75
2023/10/27 09:59:55;;;;;;;8.48;4.22;;;10.40;99.90;;;;;;5002205;28;20045;-74
2023/10/27 10:02:23;;;;;;;9.15;4.60;;;10.40;99.90;;;;;;5000188;28;20482;-75
2023/10/27 10:04:51;;;;;;;8.23;4.20;;;10.50;99.90;;;;;;5001360;28;20053;-74
2023/10/27 10:07:52;;;;;;;12.35;4.35;;;10.50;99.90;;;;;;5001445;28;20111;-75
2023/10/27 10:10:29;;;;;;;7.20;5.45;;;10.50;99.90;;;;;;5000928;28;20053;-75
2023/10/27 10:13:34;;;;;;;7.22;4.13;;;10.50;99.90;;;;;;5018767;28;20112;-77
2023/10/27 10:16:00;;;;;;;10.88;4.88;;;10.50;99.90;;;;;;4954760;28;20053;-76
2023/10/27 10:18:44;;;;;;;9.00;5.53;;;10.50;99.90;;;;;;5002550;28;20042;-76
2023/10/27 10:21:09;;;;;;;6.30;3.85;;;10.50;99.90;;;;;;5000715;28;20053;-74
2023/10/27 10:23:38;;;;;;;6.88;4.05;;;10.60;99.90;;;;;;5003143;28;20636;-75
2023/10/27 10:26:05;;;;;;;6.80;4.00;;;10.60;99.90;;;;;;5002393;28;20061;-74
2023/10/27 10:28:34;;;;;;;7.90;4.32;;;10.60;99.90;;;;;;5002767;28;20327;-75
2023/10/27 10:31:06;;;;;;;8.45;4.53;;;10.60;99.90;;;;;;5001742;28;20037;-75
2023/10/27 10:33:32;;;;;;;7.22;4.78;;;10.60;99.90;;;;;;5000886;28;20046;-75
2023/10/27 10:36:22;;;;;;;9.23;4.35;;;10.60;99.90;;;;;;5001108;28;20164;-75
2023/10/27 10:38:53;;;;;;;10.07;4.78;;;10.70;99.90;;;;;;5001009;28;20100;-75
2023/10/27 10:41:19;;;;;;;7.30;3.73;;;10.70;99.90;;;;;;5000657;28;20137;-73
2023/10/27 10:43:45;;;;;;;10.82;4.95;;;10.70;99.90;;;;;;5001375;28;20517;-73
2023/10/27 10:46:12;;;;;;;13.25;7.28;;;10.70;99.90;;;;;;4983835;28;20049;-73
2023/10/27 10:48:45;;;;;;;6.57;4.80;;;10.70;99.90;;;;;;5002064;28;20042;-73
2023/10/27 10:51:15;;;;;;;6.07;3.88;;;10.70;99.90;;;;;;5000576;28;20048;-73
2023/10/27 10:53:43;;;;;;;7.95;4.20;;;10.70;99.90;;;;;;5000590;28;20038;-73
2023/10/27 10:56:09;;;;;;;7.80;4.25;;;10.70;99.90;;;;;;4999031;28;20084;-74
2023/10/27 10:58:37;;;;;;;10.32;4.47;;;10.80;99.90;;;;;;5000416;28;20837;-75
2023/10/27 11:01:03;;;;;;;13.13;5.28;;;10.80;99.90;;;;;;5003020;28;20525;-76
2023/10/27 11:03:33;;;;;;;9.80;5.43;;;10.80;99.90;;;;;;5001062;28;20069;-75
2023/10/27 11:06:01;;;;;;;9.25;5.03;;;10.80;99.90;;;;;;5016054;28;20050;-75
2023/10/27 11:08:29;;;;;;;11.18;5.50;;;10.80;99.90;;;;;;4999358;28;20269;-75
2023/10/27 11:11:02;;;;;;;6.57;4.53;;;10.80;99.90;;;;;;5000098;28;20041;-75
2023/10/27 11:13:29;;;;;;;8.02;4.57;;;10.80;99.90;;;;;;4999317;28;20508;-75
2023/10/27 11:15:55;;;;;;;8.38;4.35;;;10.80;99.90;;;;;;5000820;28;20069;-75
2023/10/27 11:18:21;;;;;;;7.82;4.78;;;10.80;99.90;;;;;;5000684;28;20110;-75
2023/10/27 11:20:48;;;;;;;8.60;4.78;;;10.80;99.90;;;;;;5001017;28;20512;-75
2023/10/27 11:23:17;;;;;;;9.93;4.25;;;10.80;99.90;;;;;;5001414;28;20050;-75
2023/10/27 11:25:43;;;;;;;11.93;6.95;;;10.80;99.90;;;;;;5000143;28;20046;-75
2023/10/27 11:28:29;;;;;;;6.75;4.32;;;10.80;99.90;;;;;;4999333;28;20081;-75
2023/10/27 11:31:13;;;;;;;13.35;5.38;;;10.80;99.90;;;;;;5001640;28;20535;-75
2023/10/27 11:33:58;;;;;;;12.23;6.22;;;10.80;99.90;;;;;;4999329;28;20069;-75
2023/10/27 11:36:39;;;;;;;13.18;4.80;;;10.90;99.90;;;;;;4999945;28;20081;-75
2023/10/27 11:39:23;;;;;;;10.48;4.85;;;10.80;99.90;;;;;;5001372;28;20053;-75
2023/10/27 11:41:55;;;;;;;9.95;5.53;;;10.80;99.90;;;;;;4992724;28;20054;-74
2023/10/27 11:44:21;;;;;;;8.55;4.97;;;10.90;99.90;;;;;;5000649;28;20050;-75
2023/10/27 11:46:49;;;;;;;9.05;5.15;;;10.90;99.90;;;;;;4998450;28;20057;-74
2023/10/27 11:49:15;;;;;;;9.27;4.63;;;10.90;99.90;;;;;;4999626;28;20102;-74
2023/10/27 11:51:45;;;;;;;11.38;6.38;;;10.90;99.90;;;;;;4999175;28;20374;-75
2023/10/27 11:54:10;;;;;;;12.02;5.93;;;10.90;99.90;;;;;;4982474;28;20041;-75
2023/10/27 11:56:37;;;;;;;9.10;4.90;;;10.90;99.90;;;;;;5000977;28;20042;-74
2023/10/27 11:59:04;;;;;;;10.43;4.95;;;10.90;99.90;;;;;;4999289;28;20077;-74
2023/10/27 12:01:30;;;;;;;12.13;6.43;;;10.90;99.90;;;;;;4999128;28;20046;-74
2023/10/27 12:03:55;;;;;;;9.57;5.13;;;10.90;99.90;;;;;;4999163;28;20053;-75
2023/10/27 12:06:21;;;;;;;10.15;5.70;;;10.90;99.90;;;;;;4999073;28;20041;-74
2023/10/27 12:08:47;;;;;;;12.05;5.15;;;10.90;99.90;;;;;;4999323;28;20061;-74
2023/10/27 12:11:14;;;;;;;9.50;5.88;;;10.90;99.90;;;;;;4998995;28;20049;-75
2023/10/27 12:13:40;;;;;;;10.10;5.38;;;10.90;99.90;;;;;;5001600;28;20488;-75
2023/10/27 12:16:06;;;;;;;11.45;5.63;;;10.90;99.90;;;;;;4998756;28;20053;-74
2023/10/27 12:18:32;;;;;;;7.90;4.90;;;10.90;99.90;;;;;;4999520;28;20042;-74
2023/10/27 12:21:00;;;;;;;14.25;6.50;;;10.90;99.90;;;;;;5000265;28;20046;-74
2023/10/27 12:23:29;;;;;;;10.38;5.38;;;10.90;99.90;;;;;;4999091;28;20140;-74
2023/10/27 12:25:56;;;;;;;11.40;5.32;;;10.90;99.90;;;;;;5000012;28;20050;-74
2023/10/27 12:28:23;;;;;;;12.02;5.60;;;10.90;99.90;;;;;;4998552;28;20057;-75
2023/10/27 12:30:49;;;;;;;13.73;7.15;;;10.90;99.90;;;;;;4999556;28;20060;-74
2023/10/27 12:33:15;;;;;;;10.07;5.28;;;10.90;99.90;;;;;;4999299;28;20038;-74
2023/10/27 12:35:40;;;;;;;12.32;5.15;;;10.90;99.90;;;;;;4999020;28;20396;-75
2023/10/27 12:38:06;;;;;;;11.02;6.22;;;10.90;99.90;;;;;;4999147;28;20285;-75
2023/10/27 12:40:34;;;;;;;16.58;7.53;;;10.90;99.90;;;;;;5000663;28;20042;-74
2023/10/27 12:43:01;;;;;;;10.80;5.78;;;10.90;99.90;;;;;;4999720;28;20042;-74
2023/10/27 12:45:26;;;;;;;17.83;8.52;;;10.90;99.90;;;;;;4998768;28;20077;-74